Airfield :
LOGIN :

Register | Disclaimer

   EN    FR    IT 

 










Legend :    VFR   Marginal VFR   IFR   Intensive IFR   Very Intensive IFR
Visi :
Ceiling :
>= 8 km
>= 3000ft
5 to 8 km
1000 to 3000 ft
1500m to 5 km
500 to 1000 ft
800 to 1500m
200 to 500 ft
< 800m
< 200 ft
Symbols :   Thunderstorms  Fog  Heavy snow  Heavy precipitations  Wind > 20 kt
SIGMETs :     Misc.  Thunderstorms  Icing  Turbulence  Mountain Waves  Volcanic Ashes







- Airport Elevation : 1115 ft
- IATA code : GRZ


LOWG - Graz

CURRENT METAR :
  • 231450Z 33013KT 9999 FEW050 BKN110 11/01 Q1012 NOSIG

EXPIRED METARs :
  • 231420Z 33010KT 290V010 9999 FEW055 BKN110 11/01 Q1012 NOSIG
  • 231350Z 33010KT 300V360 9999 FEW055 BKN110 12/01 Q1012 NOSIG
  • 231320Z 32010KT 280V350 9999 FEW055 BKN120 12/01 Q1012 NOSIG
  • 231250Z 33008KT 300V040 9999 FEW055 BKN120 12/02 Q1011 NOSIG
  • 231220Z 32011KT 280V360 9999 FEW055 BKN110 12/01 Q1011 NOSIG

TAF TAF LOWG
Valid from the 23 at 12:00 until the 24 at 12:00 UTC


231115Z 2312/2412 32007KT 9999 FEW050 BKN120 TX14/2412Z TN05/2405Z
TEMPO 2312/2316 32015G25KT
BECMG 2316/2318 CAVOK
TEMPO 2408/2412 34015G25KT 9999 SCT050
No reported NOTAMs for that airfield.



MET'MAP, your aeronautical weather chart ! - Copyright ORBIFLY December 2007 - Disclaimer

ORBIFLY MET'MAP TEAM :

Programming & Development : Alexandra Zaïnal
Concept & Development : Baudouin d'Aumeries
Co-Development & Prog : Marc-Olivier Méhu
Technical & hardware support : Manuel Goepfert

Contact : metmap@orbifly.com




SOURCES & CREDITS :

   NOAA